Home   Weather   United Kingdom   Belfast   Past weeks
Flag for United Kingdom

Past Weather in Belfast, Northern Ireland, United Kingdom — Yesterday and Last 2 Weeks

Currently: 46 °F. Cool. (Weather station: Belfast / Harbour, United Kingdom). See more current weather

Past Weather in Belfast — Graph

°F

Belfast Temperature Yesterday

Maximum temperature yesterday: 55 °F (at 3:20 pm)
Minimum temperature yesterday: 32 °F (at 5:50 am)
Average temperature yesterday: 45 °F

High & Low Weather Summary for the Past Weeks

 TemperatureHumidityPressure
High55 °F (Apr 3, 1:50 pm)100% (Apr 4, 5:20 am)30.63 "Hg (Apr 4, 5:20 am)
Low30 °F (Apr 10, 3:50 am)40% (Apr 10, 3:50 pm)29.80 "Hg (Apr 8, 6:20 pm)
Average42 °F75%30.30 "Hg
* Reported Apr 1 8:20 am — Apr 16 8:50 am, Belfast. Weather by CustomWeather, © 2021

Note: Actual official high and low records may vary slightly from our data, if they occured in-between our weather recording intervals... More about our weather records

Belfast Weather History for the Previous 24 Hours

Scroll right to see more
 ConditionsComfort  
Time TempWeatherWind HumidityBarometerVisibility
8:50 am
Fri, Apr 16
45 °FQuite cool.3 mph76%30.45 "HgN/A
8:20 am43 °FQuite cool.3 mph81%30.45 "HgN/A
7:50 am41 °FQuite cool.3 mph87%30.42 "HgN/A
7:20 am39 °FChilly.5 mph87%30.42 "HgN/A
6:50 am39 °FChilly.5 mph87%30.42 "HgN/A
6:20 am37 °FChilly.5 mph93%30.42 "HgN/A
5:50 am39 °FPassing clouds.6 mph87%30.42 "HgN/A
5:20 am39 °FChilly.7 mph87%30.42 "HgN/A
4:50 am39 °FPassing clouds.7 mph87%30.42 "HgN/A
4:20 am39 °FChilly.8 mph87%30.42 "HgN/A
3:50 am39 °FChilly.8 mph87%30.42 "HgN/A
3:20 am39 °FChilly.7 mph87%30.42 "HgN/A
2:50 am41 °FQuite cool.7 mph81%30.45 "HgN/A
2:20 am41 °FQuite cool.7 mph81%30.45 "HgN/A
1:50 am41 °FQuite cool.7 mph81%30.45 "HgN/A
1:20 am39 °FChilly.6 mph87%30.45 "HgN/A
12:50 am41 °FQuite cool.7 mph81%30.45 "HgN/A
12:20 am39 °FChilly.6 mph87%30.45 "HgN/A
11:50 pm
Thu, Apr 15
41 °FQuite cool.7 mph81%30.45 "HgN/A
11:20 pm43 °FQuite cool.6 mph76%30.45 "HgN/A
10:50 pm43 °FQuite cool.7 mph76%30.48 "HgN/A
10:20 pm43 °FQuite cool.5 mph81%30.48 "HgN/A
9:50 pm45 °FQuite cool.5 mph76%30.48 "HgN/A
9:20 pm45 °FQuite cool.7 mph76%30.48 "HgN/A
8:50 pm46 °FCool.7 mph71%30.48 "HgN/A
8:20 pm46 °FCool.9 mph71%30.45 "HgN/A
7:50 pm48 °FCool.10 mph66%30.45 "HgN/A
7:20 pm50 °FCool.10 mph58%30.45 "HgN/A
6:50 pm52 °FCool.9 mph47%30.48 "HgN/A
6:20 pm52 °FCool.13 mph47%30.48 "HgN/A
5:50 pm52 °FCool.12 mph50%30.48 "HgN/A
5:20 pm54 °FCool.13 mph47%30.48 "HgN/A
4:50 pm54 °FCool.12 mph44%30.48 "HgN/A
4:20 pm54 °FCool.12 mph47%30.48 "HgN/A
3:50 pm54 °FPassing clouds.14 mph47%30.48 "HgN/A
3:20 pm55 °FScattered clouds.13 mph41%30.51 "HgN/A
2:50 pm54 °FCool.13 mph44%30.51 "HgN/A
2:20 pm54 °FCool.10 mph47%30.51 "HgN/A
1:50 pm54 °FCool.10 mph47%30.51 "HgN/A
1:20 pm54 °FCool.13 mph51%30.51 "HgN/A
12:50 pm54 °FPassing clouds.10 mph54%30.51 "HgN/A
12:20 pm54 °FScattered clouds.10 mph58%30.51 "HgN/A
11:50 am52 °FCool.9 mph62%30.54 "HgN/A
11:20 am50 °FCool.8 mph76%30.54 "HgN/A
10:50 am50 °FPassing clouds.7 mph71%30.54 "HgN/A
10:20 am48 °FScattered clouds.3 mph82%30.54 "HgN/A
Weather by CustomWeather, © 2021

See weather overview